sensor_id;sensor_type;location;lat;lon;timestamp;pressure;altitude;pressure_sealevel;temperature;humidity
63190;BME280;49286;44.460;26.114;2023-05-03T00:02:10;101264.72;;;9.56;100.00
63190;BME280;49286;44.460;26.114;2023-05-03T00:04:36;101258.81;;;9.20;100.00
63190;BME280;49286;44.460;26.114;2023-05-03T00:07:02;101261.44;;;9.20;100.00
63190;BME280;49286;44.460;26.114;2023-05-03T00:09:28;101114.31;;;8.06;100.00
63190;BME280;49286;44.460;26.114;2023-05-03T00:11:53;101247.38;;;8.71;100.00
63190;BME280;49286;44.460;26.114;2023-05-03T00:14:19;101128.34;;;7.70;100.00
63190;BME280;49286;44.460;26.114;2023-05-03T00:16:46;101222.84;;;8.27;100.00
63190;BME280;49286;44.460;26.114;2023-05-03T00:19:11;101117.63;;;7.59;100.00
63190;BME280;49286;44.460;26.114;2023-05-03T00:21:37;101230.56;;;8.22;100.00
63190;BME280;49286;44.460;26.114;2023-05-03T00:24:02;101219.00;;;8.12;100.00
63190;BME280;49286;44.460;26.114;2023-05-03T00:26:28;101061.09;;;7.25;100.00
63190;BME280;49286;44.460;26.114;2023-05-03T00:28:53;101210.38;;;8.15;100.00
63190;BME280;49286;44.460;26.114;2023-05-03T00:31:19;101132.31;;;7.54;100.00
63190;BME280;49286;44.460;26.114;2023-05-03T00:33:44;101097.44;;;7.52;100.00
63190;BME280;49286;44.460;26.114;2023-05-03T00:36:11;101176.03;;;7.99;100.00
63190;BME280;49286;44.460;26.114;2023-05-03T00:38:38;101203.44;;;8.55;100.00
63190;BME280;49286;44.460;26.114;2023-05-03T00:41:04;101215.00;;;8.68;100.00
63190;BME280;49286;44.460;26.114;2023-05-03T00:43:31;101203.53;;;8.59;100.00
63190;BME280;49286;44.460;26.114;2023-05-03T00:45:58;101154.19;;;7.97;100.00
63190;BME280;49286;44.460;26.114;2023-05-03T00:48:24;101221.19;;;8.32;100.00
63190;BME280;49286;44.460;26.114;2023-05-03T00:50:50;100981.28;;;6.95;100.00
63190;BME280;49286;44.460;26.114;2023-05-03T00:53:18;101067.31;;;7.67;100.00
63190;BME280;49286;44.460;26.114;2023-05-03T00:55:44;101074.66;;;7.85;100.00
63190;BME280;49286;44.460;26.114;2023-05-03T00:58:09;101208.75;;;8.61;100.00
63190;BME280;49286;44.460;26.114;2023-05-03T01:00:36;101191.97;;;8.50;100.00
63190;BME280;49286;44.460;26.114;2023-05-03T01:03:01;101144.31;;;7.84;100.00
63190;BME280;49286;44.460;26.114;2023-05-03T01:05:32;101204.13;;;8.10;100.00
63190;BME280;49286;44.460;26.114;2023-05-03T01:10:51;101213.66;;;8.06;100.00
63190;BME280;49286;44.460;26.114;2023-05-03T01:18:54;101210.16;;;8.07;100.00
63190;BME280;49286;44.460;26.114;2023-05-03T01:21:22;101185.28;;;7.85;100.00
63190;BME280;49286;44.460;26.114;2023-05-03T01:24:20;101196.53;;;7.82;100.00
63190;BME280;49286;44.460;26.114;2023-05-03T01:26:46;101107.22;;;7.25;100.00
63190;BME280;49286;44.460;26.114;2023-05-03T01:29:11;101089.28;;;7.04;100.00
63190;BME280;49286;44.460;26.114;2023-05-03T01:34:27;101093.22;;;7.21;100.00
63190;BME280;49286;44.460;26.114;2023-05-03T01:36:57;101065.69;;;6.99;100.00
63190;BME280;49286;44.460;26.114;2023-05-03T01:42:26;101171.25;;;7.45;100.00
63190;BME280;49286;44.460;26.114;2023-05-03T01:44:53;101172.19;;;7.47;100.00
63190;BME280;49286;44.460;26.114;2023-05-03T01:47:20;101058.97;;;6.74;100.00
63190;BME280;49286;44.460;26.114;2023-05-03T01:49:45;101042.31;;;6.67;100.00
63190;BME280;49286;44.460;26.114;2023-05-03T01:52:11;101014.09;;;6.52;100.00
63190;BME280;49286;44.460;26.114;2023-05-03T01:54:36;101142.66;;;7.15;100.00
63190;BME280;49286;44.460;26.114;2023-05-03T01:57:02;101153.50;;;7.32;100.00
63190;BME280;49286;44.460;26.114;2023-05-03T01:59:27;101155.75;;;7.16;100.00
63190;BME280;49286;44.460;26.114;2023-05-03T02:01:53;101026.06;;;6.46;100.00
63190;BME280;49286;44.460;26.114;2023-05-03T02:04:18;101021.78;;;6.48;100.00
63190;BME280;49286;44.460;26.114;2023-05-03T02:06:44;101133.38;;;7.26;100.00
63190;BME280;49286;44.460;26.114;2023-05-03T02:09:09;101132.09;;;7.10;100.00
63190;BME280;49286;44.460;26.114;2023-05-03T02:11:35;101034.81;;;6.48;100.00
63190;BME280;49286;44.460;26.114;2023-05-03T02:14:00;101143.34;;;7.08;100.00
63190;BME280;49286;44.460;26.114;2023-05-03T02:16:26;101129.94;;;6.94;100.00
63190;BME280;49286;44.460;26.114;2023-05-03T02:18:52;101010.97;;;6.32;100.00
63190;BME280;49286;44.460;26.114;2023-05-03T02:21:18;100986.47;;;6.26;100.00
63190;BME280;49286;44.460;26.114;2023-05-03T02:23:44;101018.91;;;6.37;100.00
63190;BME280;49286;44.460;26.114;2023-05-03T02:26:09;100995.28;;;6.31;100.00
63190;BME280;49286;44.460;26.114;2023-05-03T02:28:35;100983.72;;;6.21;100.00
63190;BME280;49286;44.460;26.114;2023-05-03T02:31:01;101008.25;;;6.29;100.00
63190;BME280;49286;44.460;26.114;2023-05-03T02:33:27;101041.00;;;6.51;100.00
63190;BME280;49286;44.460;26.114;2023-05-03T02:35:56;101113.41;;;6.95;100.00
63190;BME280;49286;44.460;26.114;2023-05-03T02:38:21;100985.28;;;6.15;100.00
63190;BME280;49286;44.460;26.114;2023-05-03T02:40:47;101112.34;;;6.87;100.00
63190;BME280;49286;44.460;26.114;2023-05-03T02:43:12;100968.16;;;6.23;100.00
63190;BME280;49286;44.460;26.114;2023-05-03T02:45:38;101009.31;;;6.36;100.00
63190;BME280;49286;44.460;26.114;2023-05-03T02:48:03;101104.47;;;6.85;100.00
63190;BME280;49286;44.460;26.114;2023-05-03T02:50:29;101084.03;;;6.67;100.00
63190;BME280;49286;44.460;26.114;2023-05-03T02:52:54;101086.81;;;6.75;100.00
63190;BME280;49286;44.460;26.114;2023-05-03T02:55:20;100975.47;;;6.04;100.00
63190;BME280;49286;44.460;26.114;2023-05-03T02:57:45;101101.72;;;6.79;100.00
63190;BME280;49286;44.460;26.114;2023-05-03T03:00:11;101089.44;;;6.75;100.00
63190;BME280;49286;44.460;26.114;2023-05-03T03:02:39;101122.59;;;6.79;100.00
63190;BME280;49286;44.460;26.114;2023-05-03T03:05:05;101105.00;;;6.72;100.00
63190;BME280;49286;44.460;26.114;2023-05-03T03:07:31;101079.38;;;6.55;100.00
63190;BME280;49286;44.460;26.114;2023-05-03T03:09:56;101098.50;;;6.56;100.00
63190;BME280;49286;44.460;26.114;2023-05-03T03:12:22;100903.66;;;5.52;100.00
63190;BME280;49286;44.460;26.114;2023-05-03T03:14:47;101094.28;;;6.61;100.00
63190;BME280;49286;44.460;26.114;2023-05-03T03:17:14;101104.09;;;6.71;100.00
63190;BME280;49286;44.460;26.114;2023-05-03T03:19:40;101074.47;;;6.68;100.00
63190;BME280;49286;44.460;26.114;2023-05-03T03:22:06;101069.75;;;6.54;100.00
63190;BME280;49286;44.460;26.114;2023-05-03T03:24:32;101051.50;;;6.54;100.00
63190;BME280;49286;44.460;26.114;2023-05-03T03:26:57;100980.25;;;6.21;100.00
63190;BME280;49286;44.460;26.114;2023-05-03T03:29:23;101032.06;;;6.42;100.00
63190;BME280;49286;44.460;26.114;2023-05-03T03:31:48;100968.59;;;6.08;100.00
63190;BME280;49286;44.460;26.114;2023-05-03T03:34:14;100950.09;;;5.99;100.00
63190;BME280;49286;44.460;26.114;2023-05-03T03:36:40;101013.50;;;6.31;100.00
63190;BME280;49286;44.460;26.114;2023-05-03T03:39:05;100869.38;;;5.67;100.00
63190;BME280;49286;44.460;26.114;2023-05-03T03:41:32;101042.38;;;6.70;100.00
63190;BME280;49286;44.460;26.114;2023-05-03T03:43:57;100968.78;;;6.16;100.00
63190;BME280;49286;44.460;26.114;2023-05-03T03:46:23;101043.00;;;6.62;100.00
63190;BME280;49286;44.460;26.114;2023-05-03T03:48:49;100945.34;;;6.16;100.00
63190;BME280;49286;44.460;26.114;2023-05-03T03:51:14;100969.94;;;6.25;100.00
63190;BME280;49286;44.460;26.114;2023-05-03T03:53:40;101068.19;;;6.94;100.00
63190;BME280;49286;44.460;26.114;2023-05-03T03:56:06;100955.91;;;6.53;100.00
63190;BME280;49286;44.460;26.114;2023-05-03T03:58:32;100999.72;;;6.68;100.00
63190;BME280;49286;44.460;26.114;2023-05-03T04:00:58;100997.50;;;6.84;100.00
63190;BME280;49286;44.460;26.114;2023-05-03T04:03:25;100963.31;;;6.73;100.00
63190;BME280;49286;44.460;26.114;2023-05-03T04:05:50;101107.13;;;7.58;100.00
63190;BME280;49286;44.460;26.114;2023-05-03T04:08:16;100986.50;;;6.97;100.00
63190;BME280;49286;44.460;26.114;2023-05-03T04:10:42;101126.56;;;7.69;100.00
63190;BME280;49286;44.460;26.114;2023-05-03T04:13:07;100979.56;;;6.97;100.00
63190;BME280;49286;44.460;26.114;2023-05-03T04:15:33;101116.16;;;7.71;100.00
63190;BME280;49286;44.460;26.114;2023-05-03T04:17:59;101090.53;;;7.54;100.00
63190;BME280;49286;44.460;26.114;2023-05-03T04:20:24;100997.84;;;6.99;100.00
63190;BME280;49286;44.460;26.114;2023-05-03T04:22:50;100964.72;;;6.95;100.00
63190;BME280;49286;44.460;26.114;2023-05-03T04:25:15;101112.84;;;7.79;100.00
63190;BME280;49286;44.460;26.114;2023-05-03T04:27:44;101089.66;;;7.54;100.00
63190;BME280;49286;44.460;26.114;2023-05-03T04:30:10;101011.19;;;7.11;100.00
63190;BME280;49286;44.460;26.114;2023-05-03T04:32:39;100952.25;;;6.83;100.00
63190;BME280;49286;44.460;26.114;2023-05-03T04:35:06;101096.13;;;7.71;100.00
63190;BME280;49286;44.460;26.114;2023-05-03T04:37:35;101105.00;;;7.78;100.00
63190;BME280;49286;44.460;26.114;2023-05-03T04:40:01;101002.97;;;7.32;100.00
63190;BME280;49286;44.460;26.114;2023-05-03T04:42:29;101112.88;;;8.20;100.00
63190;BME280;49286;44.460;26.114;2023-05-03T04:44:54;100992.00;;;7.47;100.00
63190;BME280;49286;44.460;26.114;2023-05-03T04:47:20;101142.88;;;8.38;100.00
63190;BME280;49286;44.460;26.114;2023-05-03T04:49:45;101156.84;;;8.81;100.00
63190;BME280;49286;44.460;26.114;2023-05-03T04:52:11;101119.16;;;8.71;100.00
63190;BME280;49286;44.460;26.114;2023-05-03T04:54:36;101158.22;;;9.07;100.00
63190;BME280;49286;44.460;26.114;2023-05-03T04:57:02;101135.88;;;8.79;100.00
63190;BME280;49286;44.460;26.114;2023-05-03T04:59:27;101169.84;;;8.76;100.00
63190;BME280;49286;44.460;26.114;2023-05-03T05:01:53;101081.84;;;8.36;100.00
63190;BME280;49286;44.460;26.114;2023-05-03T05:04:18;101188.03;;;9.16;100.00
63190;BME280;49286;44.460;26.114;2023-05-03T05:06:44;101072.00;;;8.68;100.00
63190;BME280;49286;44.460;26.114;2023-05-03T05:09:23;101081.38;;;8.57;100.00
63190;BME280;49286;44.460;26.114;2023-05-03T05:11:49;101046.06;;;8.35;100.00
63190;BME280;49286;44.460;26.114;2023-05-03T05:14:15;101204.47;;;9.57;100.00
63190;BME280;49286;44.460;26.114;2023-05-03T05:16:41;101229.91;;;10.19;100.00
63190;BME280;49286;44.460;26.114;2023-05-03T05:19:07;101240.97;;;10.57;100.00
63190;BME280;49286;44.460;26.114;2023-05-03T05:21:32;101112.31;;;9.84;100.00
63190;BME280;49286;44.460;26.114;2023-05-03T05:23:58;101253.22;;;11.30;100.00
63190;BME280;49286;44.460;26.114;2023-05-03T05:26:24;101140.06;;;11.10;100.00
63190;BME280;49286;44.460;26.114;2023-05-03T05:28:50;101248.59;;;11.98;100.00
63190;BME280;49286;44.460;26.114;2023-05-03T05:31:16;101299.47;;;12.00;100.00
63190;BME280;49286;44.460;26.114;2023-05-03T05:33:41;101315.53;;;12.32;100.00
63190;BME280;49286;44.460;26.114;2023-05-03T05:36:07;101239.19;;;12.29;100.00
63190;BME280;49286;44.460;26.114;2023-05-03T05:38:32;101359.13;;;13.31;100.00
63190;BME280;49286;44.460;26.114;2023-05-03T05:40:58;101347.72;;;13.27;100.00
63190;BME280;49286;44.460;26.114;2023-05-03T05:43:23;101345.00;;;13.18;100.00
63190;BME280;49286;44.460;26.114;2023-05-03T05:45:49;101226.44;;;13.26;100.00
63190;BME280;49286;44.460;26.114;2023-05-03T05:48:14;101343.50;;;14.34;100.00
63190;BME280;49286;44.460;26.114;2023-05-03T05:50:40;101364.59;;;14.06;100.00
63190;BME280;49286;44.460;26.114;2023-05-03T05:53:05;101376.09;;;14.54;100.00
63190;BME280;49286;44.460;26.114;2023-05-03T05:55:33;101243.22;;;13.63;100.00
63190;BME280;49286;44.460;26.114;2023-05-03T05:57:58;101363.72;;;14.46;100.00
63190;BME280;49286;44.460;26.114;2023-05-03T06:00:24;101235.63;;;12.18;100.00
63190;BME280;49286;44.460;26.114;2023-05-03T06:02:50;101235.00;;;12.62;100.00
63190;BME280;49286;44.460;26.114;2023-05-03T06:05:15;101344.34;;;13.75;100.00
63190;BME280;49286;44.460;26.114;2023-05-03T06:07:41;101209.78;;;13.41;100.00
63190;BME280;49286;44.460;26.114;2023-05-03T06:10:07;101357.50;;;14.99;100.00
63190;BME280;49286;44.460;26.114;2023-05-03T06:12:32;101332.69;;;15.38;100.00
63190;BME280;49286;44.460;26.114;2023-05-03T06:14:58;101300.66;;;15.85;100.00
63190;BME280;49286;44.460;26.114;2023-05-03T06:17:23;101352.22;;;16.45;100.00
63190;BME280;49286;44.460;26.114;2023-05-03T06:19:50;101364.03;;;16.03;100.00
63190;BME280;49286;44.460;26.114;2023-05-03T06:22:15;101256.84;;;15.37;100.00
63190;BME280;49286;44.460;26.114;2023-05-03T06:24:41;101370.44;;;15.67;100.00
63190;BME280;49286;44.460;26.114;2023-05-03T06:27:07;101255.44;;;14.50;100.00
63190;BME280;49286;44.460;26.114;2023-05-03T06:29:33;101350.41;;;15.13;100.00
63190;BME280;49286;44.460;26.114;2023-05-03T06:31:59;101252.84;;;14.38;100.00
63190;BME280;49286;44.460;26.114;2023-05-03T06:34:24;101360.81;;;15.49;100.00
63190;BME280;49286;44.460;26.114;2023-05-03T06:36:50;101385.31;;;15.92;100.00
63190;BME280;49286;44.460;26.114;2023-05-03T06:39:15;101252.63;;;15.06;100.00
63190;BME280;49286;44.460;26.114;2023-05-03T06:41:41;101382.06;;;15.26;100.00
63190;BME280;49286;44.460;26.114;2023-05-03T06:44:07;101370.75;;;14.51;100.00
63190;BME280;49286;44.460;26.114;2023-05-03T06:46:33;101385.75;;;14.45;100.00
63190;BME280;49286;44.460;26.114;2023-05-03T06:48:58;101377.81;;;14.72;100.00
63190;BME280;49286;44.460;26.114;2023-05-03T06:51:25;101396.22;;;15.12;100.00
63190;BME280;49286;44.460;26.114;2023-05-03T06:53:55;101361.97;;;14.22;100.00
63190;BME280;49286;44.460;26.114;2023-05-03T06:56:21;101395.38;;;14.99;100.00
63190;BME280;49286;44.460;26.114;2023-05-03T06:58:47;101289.81;;;13.97;100.00
63190;BME280;49286;44.460;26.114;2023-05-03T07:01:12;101317.06;;;14.52;100.00
63190;BME280;49286;44.460;26.114;2023-05-03T07:03:38;101395.41;;;14.86;100.00
63190;BME280;49286;44.460;26.114;2023-05-03T07:06:04;101354.00;;;14.82;100.00
63190;BME280;49286;44.460;26.114;2023-05-03T07:08:29;101372.44;;;15.15;100.00
63190;BME280;49286;44.460;26.114;2023-05-03T07:10:56;101348.66;;;15.08;100.00
63190;BME280;49286;44.460;26.114;2023-05-03T07:13:21;101361.97;;;14.43;100.00
63190;BME280;49286;44.460;26.114;2023-05-03T07:15:46;101334.69;;;14.70;100.00
63190;BME280;49286;44.460;26.114;2023-05-03T07:18:12;101321.38;;;14.96;100.00
63190;BME280;49286;44.460;26.114;2023-05-03T07:20:38;101308.25;;;14.75;100.00
63190;BME280;49286;44.460;26.114;2023-05-03T07:23:03;101265.16;;;14.54;100.00
63190;BME280;49286;44.460;26.114;2023-05-03T07:25:31;101299.41;;;14.74;100.00
63190;BME280;49286;44.460;26.114;2023-05-03T07:27:56;101372.31;;;15.41;100.00
63190;BME280;49286;44.460;26.114;2023-05-03T07:30:22;101297.69;;;14.69;100.00
63190;BME280;49286;44.460;26.114;2023-05-03T07:32:47;101290.63;;;14.68;100.00
63190;BME280;49286;44.460;26.114;2023-05-03T07:35:15;101402.16;;;15.70;100.00
63190;BME280;49286;44.460;26.114;2023-05-03T07:37:41;101323.97;;;15.12;100.00
63190;BME280;49286;44.460;26.114;2023-05-03T07:40:08;101225.50;;;14.48;100.00
63190;BME280;49286;44.460;26.114;2023-05-03T07:42:34;101382.03;;;15.33;100.00
63190;BME280;49286;44.460;26.114;2023-05-03T07:45:00;101320.41;;;15.19;100.00
63190;BME280;49286;44.460;26.114;2023-05-03T07:47:26;101295.72;;;15.22;100.00
63190;BME280;49286;44.460;26.114;2023-05-03T07:49:52;101412.59;;;15.99;100.00
63190;BME280;49286;44.460;26.114;2023-05-03T07:52:18;101297.19;;;15.75;100.00
63190;BME280;49286;44.460;26.114;2023-05-03T07:54:44;101401.03;;;16.15;100.00
63190;BME280;49286;44.460;26.114;2023-05-03T07:57:12;101414.50;;;15.75;100.00
63190;BME280;49286;44.460;26.114;2023-05-03T07:59:38;101316.75;;;15.48;100.00
63190;BME280;49286;44.460;26.114;2023-05-03T08:02:03;101288.53;;;15.48;100.00
63190;BME280;49286;44.460;26.114;2023-05-03T08:04:29;101407.28;;;16.03;100.00
63190;BME280;49286;44.460;26.114;2023-05-03T08:06:54;101405.47;;;16.10;100.00
63190;BME280;49286;44.460;26.114;2023-05-03T08:09:20;101386.38;;;15.50;100.00
63190;BME280;49286;44.460;26.114;2023-05-03T08:11:45;101421.47;;;15.92;100.00
63190;BME280;49286;44.460;26.114;2023-05-03T08:14:11;101317.00;;;14.92;100.00
63190;BME280;49286;44.460;26.114;2023-05-03T08:16:36;101387.16;;;15.76;100.00
63190;BME280;49286;44.460;26.114;2023-05-03T08:19:02;101444.41;;;15.96;100.00
63190;BME280;49286;44.460;26.114;2023-05-03T08:21:29;101358.03;;;15.79;100.00
63190;BME280;49286;44.460;26.114;2023-05-03T08:23:55;101370.06;;;16.22;100.00
63190;BME280;49286;44.460;26.114;2023-05-03T08:26:20;101447.84;;;16.12;100.00
63190;BME280;49286;44.460;26.114;2023-05-03T08:28:46;101327.22;;;15.74;100.00
63190;BME280;49286;44.460;26.114;2023-05-03T08:31:12;101307.72;;;15.84;100.00
63190;BME280;49286;44.460;26.114;2023-05-03T08:33:38;101432.25;;;16.91;100.00
63190;BME280;49286;44.460;26.114;2023-05-03T08:36:04;101304.28;;;15.67;100.00
63190;BME280;49286;44.460;26.114;2023-05-03T08:38:29;101413.03;;;16.62;100.00
63190;BME280;49286;44.460;26.114;2023-05-03T08:40:58;101421.13;;;16.41;100.00
63190;BME280;49286;44.460;26.114;2023-05-03T08:43:28;101367.28;;;16.42;100.00
63190;BME280;49286;44.460;26.114;2023-05-03T08:45:54;101420.25;;;16.42;100.00
63190;BME280;49286;44.460;26.114;2023-05-03T08:48:20;101406.06;;;16.48;100.00
63190;BME280;49286;44.460;26.114;2023-05-03T08:50:46;101416.50;;;16.67;100.00
63190;BME280;49286;44.460;26.114;2023-05-03T08:53:12;101285.19;;;16.39;100.00
63190;BME280;49286;44.460;26.114;2023-05-03T08:55:38;101311.25;;;16.82;100.00
63190;BME280;49286;44.460;26.114;2023-05-03T08:58:07;101411.72;;;17.09;100.00
63190;BME280;49286;44.460;26.114;2023-05-03T09:00:37;101377.16;;;17.16;100.00
63190;BME280;49286;44.460;26.114;2023-05-03T09:03:03;101302.81;;;17.22;100.00
63190;BME280;49286;44.460;26.114;2023-05-03T09:05:35;101269.16;;;16.51;100.00
63190;BME280;49286;44.460;26.114;2023-05-03T09:08:06;101396.56;;;17.19;100.00
63190;BME280;49286;44.460;26.114;2023-05-03T09:10:35;101283.59;;;16.22;100.00
63190;BME280;49286;44.460;26.114;2023-05-03T09:13:01;101385.97;;;17.19;100.00
63190;BME280;49286;44.460;26.114;2023-05-03T09:15:30;101371.84;;;17.16;94.99
63190;BME280;49286;44.460;26.114;2023-05-03T09:18:14;101369.19;;;17.17;93.58
63190;BME280;49286;44.460;26.114;2023-05-03T09:20:41;101383.91;;;17.44;96.09
63190;BME280;49286;44.460;26.114;2023-05-03T09:23:09;101286.72;;;16.61;100.00
63190;BME280;49286;44.460;26.114;2023-05-03T09:25:42;101392.19;;;17.17;100.00
63190;BME280;49286;44.460;26.114;2023-05-03T09:28:07;101351.84;;;17.58;100.00
63190;BME280;49286;44.460;26.114;2023-05-03T09:30:33;101374.97;;;17.51;100.00
63190;BME280;49286;44.460;26.114;2023-05-03T09:32:59;101268.84;;;16.80;100.00
63190;BME280;49286;44.460;26.114;2023-05-03T09:35:24;101281.59;;;16.43;100.00
63190;BME280;49286;44.460;26.114;2023-05-03T09:37:49;101364.91;;;17.75;100.00
63190;BME280;49286;44.460;26.114;2023-05-03T09:40:15;101350.75;;;18.32;100.00
63190;BME280;49286;44.460;26.114;2023-05-03T09:43:06;101360.34;;;18.41;100.00
63190;BME280;49286;44.460;26.114;2023-05-03T09:45:33;101348.59;;;18.03;100.00
63190;BME280;49286;44.460;26.114;2023-05-03T09:48:01;101252.88;;;16.88;100.00
63190;BME280;49286;44.460;26.114;2023-05-03T09:50:27;101228.31;;;16.69;100.00
63190;BME280;49286;44.460;26.114;2023-05-03T09:52:54;101347.00;;;17.89;100.00
63190;BME280;49286;44.460;26.114;2023-05-03T09:55:21;101358.25;;;18.58;100.00
63190;BME280;49286;44.460;26.114;2023-05-03T09:57:48;101342.78;;;18.30;100.00
63190;BME280;49286;44.460;26.114;2023-05-03T10:00:15;101367.22;;;17.33;100.00
63190;BME280;49286;44.460;26.114;2023-05-03T10:02:41;101353.34;;;17.78;100.00
63190;BME280;49286;44.460;26.114;2023-05-03T10:05:09;101276.06;;;17.98;100.00
63190;BME280;49286;44.460;26.114;2023-05-03T10:07:38;101305.50;;;18.37;100.00
63190;BME280;49286;44.460;26.114;2023-05-03T10:10:06;101255.06;;;17.23;100.00
63190;BME280;49286;44.460;26.114;2023-05-03T10:12:32;101338.78;;;17.43;100.00
63190;BME280;49286;44.460;26.114;2023-05-03T10:15:03;101347.44;;;17.59;100.00
63190;BME280;49286;44.460;26.114;2023-05-03T10:17:34;101320.16;;;17.46;100.00
63190;BME280;49286;44.460;26.114;2023-05-03T10:25:35;101238.28;;;16.47;100.00
63190;BME280;49286;44.460;26.114;2023-05-03T10:28:08;101336.72;;;16.97;100.00
63190;BME280;49286;44.460;26.114;2023-05-03T10:30:38;101252.63;;;17.06;100.00
63190;BME280;49286;44.460;26.114;2023-05-03T10:35:40;101305.03;;;17.54;100.00
63190;BME280;49286;44.460;26.114;2023-05-03T10:38:16;101313.69;;;17.67;100.00
63190;BME280;49286;44.460;26.114;2023-05-03T10:40:43;101311.06;;;18.21;100.00
63190;BME280;49286;44.460;26.114;2023-05-03T10:45:59;101335.19;;;19.08;100.00
63190;BME280;49286;44.460;26.114;2023-05-03T10:48:25;101224.31;;;19.48;92.96
63190;BME280;49286;44.460;26.114;2023-05-03T10:50:53;101296.06;;;20.27;88.28
63190;BME280;49286;44.460;26.114;2023-05-03T10:56:07;101223.44;;;18.66;90.52
63190;BME280;49286;44.460;26.114;2023-05-03T11:01:04;101282.47;;;19.27;97.18
63190;BME280;49286;44.460;26.114;2023-05-03T11:06:33;101201.34;;;18.61;95.89
63190;BME280;49286;44.460;26.114;2023-05-03T11:09:01;101281.09;;;18.61;94.20
63190;BME280;49286;44.460;26.114;2023-05-03T11:11:28;101187.00;;;18.70;89.99
63190;BME280;49286;44.460;26.114;2023-05-03T11:13:53;101292.09;;;18.91;91.48
63190;BME280;49286;44.460;26.114;2023-05-03T11:16:19;101190.13;;;18.47;90.93
63190;BME280;49286;44.460;26.114;2023-05-03T11:18:45;101286.00;;;18.84;91.67
63190;BME280;49286;44.460;26.114;2023-05-03T11:21:14;101184.63;;;18.11;89.65
63190;BME280;49286;44.460;26.114;2023-05-03T11:23:40;101284.25;;;18.85;92.98
63190;BME280;49286;44.460;26.114;2023-05-03T11:26:06;101282.59;;;19.21;95.42
63190;BME280;49286;44.460;26.114;2023-05-03T11:28:32;101283.84;;;18.58;90.31
63190;BME280;49286;44.460;26.114;2023-05-03T11:30:57;101289.13;;;19.06;92.17
63190;BME280;49286;44.460;26.114;2023-05-03T11:33:23;101226.50;;;18.90;89.25
63190;BME280;49286;44.460;26.114;2023-05-03T11:35:49;101193.19;;;18.70;90.80
63190;BME280;49286;44.460;26.114;2023-05-03T11:38:14;101272.59;;;19.31;93.86
63190;BME280;49286;44.460;26.114;2023-05-03T11:40:40;101158.38;;;18.41;89.82
63190;BME280;49286;44.460;26.114;2023-05-03T11:43:06;101284.91;;;19.36;94.48
63190;BME280;49286;44.460;26.114;2023-05-03T11:45:39;101258.84;;;19.12;87.48
63190;BME280;49286;44.460;26.114;2023-05-03T11:48:06;101189.53;;;18.32;89.63
63190;BME280;49286;44.460;26.114;2023-05-03T11:50:44;101275.81;;;19.06;94.95
63190;BME280;49286;44.460;26.114;2023-05-03T11:53:14;101235.91;;;18.61;88.26
63190;BME280;49286;44.460;26.114;2023-05-03T11:55:41;101153.03;;;18.84;88.13
63190;BME280;49286;44.460;26.114;2023-05-03T11:58:20;101198.50;;;19.12;87.87
63190;BME280;49286;44.460;26.114;2023-05-03T12:00:56;101168.50;;;18.65;85.08
63190;BME280;49286;44.460;26.114;2023-05-03T12:03:23;101149.47;;;18.43;88.14
63190;BME280;49286;44.460;26.114;2023-05-03T12:05:50;101228.75;;;18.65;86.50
63190;BME280;49286;44.460;26.114;2023-05-03T12:08:18;101164.94;;;18.66;89.32
63190;BME280;49286;44.460;26.114;2023-05-03T12:10:45;101224.06;;;18.79;88.21
63190;BME280;49286;44.460;26.114;2023-05-03T12:13:11;101210.69;;;18.84;90.32
63190;BME280;49286;44.460;26.114;2023-05-03T12:15:38;101217.28;;;19.06;87.87
63190;BME280;49286;44.460;26.114;2023-05-03T12:18:05;101208.88;;;18.86;92.18
63190;BME280;49286;44.460;26.114;2023-05-03T12:20:33;101198.09;;;18.92;93.67
63190;BME280;49286;44.460;26.114;2023-05-03T12:23:06;101094.72;;;18.34;91.91
63190;BME280;49286;44.460;26.114;2023-05-03T12:25:33;101244.75;;;19.07;90.34
63190;BME280;49286;44.460;26.114;2023-05-03T12:28:03;101227.44;;;19.28;88.70
63190;BME280;49286;44.460;26.114;2023-05-03T12:30:29;101213.22;;;19.29;83.17
63190;BME280;49286;44.460;26.114;2023-05-03T12:32:55;101125.78;;;18.73;81.12
63190;BME280;49286;44.460;26.114;2023-05-03T12:35:21;101223.19;;;19.21;77.86
63190;BME280;49286;44.460;26.114;2023-05-03T12:37:48;101225.91;;;19.17;74.75
63190;BME280;49286;44.460;26.114;2023-05-03T12:40:14;101111.03;;;18.98;70.00
63190;BME280;49286;44.460;26.114;2023-05-03T12:42:41;101172.22;;;19.36;67.96
63190;BME280;49286;44.460;26.114;2023-05-03T12:45:07;101083.78;;;18.90;67.30
63190;BME280;49286;44.460;26.114;2023-05-03T12:47:33;101094.31;;;18.93;64.83
63190;BME280;49286;44.460;26.114;2023-05-03T12:50:04;101189.53;;;19.55;67.52
63190;BME280;49286;44.460;26.114;2023-05-03T12:52:30;101176.03;;;19.61;66.91
63190;BME280;49286;44.460;26.114;2023-05-03T12:54:58;101179.25;;;19.40;63.07
63190;BME280;49286;44.460;26.114;2023-05-03T12:57:24;101109.81;;;19.13;63.14
63190;BME280;49286;44.460;26.114;2023-05-03T12:59:50;101095.97;;;18.99;62.32
63190;BME280;49286;44.460;26.114;2023-05-03T13:02:21;101050.34;;;18.80;60.43
63190;BME280;49286;44.460;26.114;2023-05-03T13:04:47;101141.19;;;19.36;58.73
63190;BME280;49286;44.460;26.114;2023-05-03T13:07:23;101081.50;;;18.72;57.98